All Spectrum Aviation - Van Nuys Airport - KVNY

HOME

Condor Squadron KVNY Webcam

Visit our Electronics Store

Condor Squadron Webcam - Van Nuys Airport - KVNY
Picture taken: Mon, 21 Sep 2020 05:04:42 -0700
YouTube Channel!    Latest Timelapse Movie    Full Size Image    Regular Size Image    

2020/09/21 11:51 KVNY 211151Z AUTO 00000KT 1 3/4SM BR OVC002 18/16 A2990 RMK AO2 SLP117 T01780156 10217 20167 53001

HOME

Condor Squadron KVNY Webcam

Visit our Electronics Store